createdAt,value
2023-02-11T00:00:24.314Z,27.13
2023-02-11T00:01:20.804Z,25.17
2023-02-11T00:02:03.799Z,24.77
2023-02-11T00:02:47.804Z,25.58
2023-02-11T00:03:29.900Z,27.52
2023-02-11T00:04:11.864Z,24.40
2023-02-11T00:04:53.657Z,25.90
2023-02-11T00:05:35.493Z,25.67
2023-02-11T00:06:17.345Z,23.98
2023-02-11T00:06:59.100Z,26.00
2023-02-11T00:07:43.652Z,24.20
2023-02-11T00:08:25.426Z,25.58
2023-02-11T00:09:07.669Z,23.13
2023-02-11T00:09:49.438Z,24.77
2023-02-11T00:10:31.146Z,22.55
2023-02-11T00:11:15.754Z,24.48
2023-02-11T00:11:57.496Z,24.45
2023-02-11T00:12:39.574Z,24.00
2023-02-11T00:13:22.017Z,22.85
2023-02-11T00:14:07.967Z,23.55
2023-02-11T00:14:49.739Z,27.13
2023-02-11T00:15:31.449Z,24.65
2023-02-11T00:16:16.834Z,21.40
2023-02-11T00:16:58.741Z,22.38
2023-02-11T00:17:40.516Z,22.10
2023-02-11T00:18:22.398Z,22.80
2023-02-11T00:19:06.336Z,23.02
2023-02-11T00:19:54.484Z,25.50
2023-02-11T00:20:39.151Z,21.55
2023-02-11T00:21:24.238Z,19.10
2023-02-11T00:22:06.585Z,23.17
2023-02-11T00:22:48.367Z,27.10
2023-02-11T00:23:33.128Z,24.17
2023-02-11T00:24:14.937Z,24.10
2023-02-11T00:24:57.166Z,24.10
2023-02-11T00:25:43.014Z,25.27
2023-02-11T00:26:28.041Z,25.35
2023-02-11T00:27:09.809Z,25.17
2023-02-11T00:27:51.553Z,21.58
2023-02-11T00:28:33.382Z,21.67
2023-02-11T00:29:15.337Z,25.13
2023-02-11T00:29:57.034Z,22.80
2023-02-11T00:30:38.868Z,25.10
2023-02-11T00:31:22.539Z,25.30
2023-02-11T00:32:05.312Z,24.42
2023-02-11T00:32:47.097Z,22.63
2023-02-11T00:33:28.938Z,23.63
2023-02-11T00:34:10.715Z,23.92
2023-02-11T00:34:53.373Z,25.75
2023-02-11T00:35:37.746Z,23.17
2023-02-11T00:36:22.205Z,27.92
2023-02-11T00:37:04.696Z,23.13
2023-02-11T00:37:46.398Z,24.98
2023-02-11T00:38:28.120Z,25.02
2023-02-11T00:39:10.284Z,22.85
2023-02-11T00:39:52.073Z,26.35
2023-02-11T00:40:33.813Z,23.17
2023-02-11T00:41:16.792Z,22.90
2023-02-11T00:41:58.980Z,25.00
2023-02-11T00:42:40.756Z,24.45
2023-02-11T00:43:22.596Z,24.80
2023-02-11T00:44:04.468Z,24.92
2023-02-11T00:44:46.236Z,23.65
2023-02-11T00:45:30.560Z,22.08
2023-02-11T00:46:12.681Z,24.75
2023-02-11T00:46:54.478Z,23.67
2023-02-11T00:47:36.485Z,25.15
2023-02-11T00:48:18.328Z,23.73
2023-02-11T00:49:00.089Z,24.85
2023-02-11T00:49:41.864Z,24.63
2023-02-11T00:50:26.585Z,24.02
2023-02-11T00:51:08.808Z,25.40
2023-02-11T00:51:50.532Z,28.55
2023-02-11T00:52:33.155Z,24.75
2023-02-11T00:53:14.859Z,24.45
2023-02-11T00:53:56.717Z,25.50
2023-02-11T00:54:38.485Z,24.48
2023-02-11T00:55:20.213Z,24.33
2023-02-11T00:56:04.781Z,27.70
2023-02-11T00:56:46.550Z,26.35
2023-02-11T00:57:28.278Z,23.65
2023-02-11T00:58:10.014Z,28.10
2023-02-11T00:58:52.036Z,24.75
2023-02-11T00:59:33.754Z,25.42
2023-02-11T01:00:15.950Z,22.23
2023-02-11T01:00:57.755Z,21.83
2023-02-11T01:01:39.957Z,25.63
2023-02-11T01:02:22.970Z,26.95
2023-02-11T01:03:04.724Z,23.58
2023-02-11T01:03:46.998Z,23.23
2023-02-11T01:04:28.821Z,23.98
2023-02-11T01:05:10.640Z,22.92
2023-02-11T01:05:52.697Z,23.10
2023-02-11T01:06:34.610Z,25.05
2023-02-11T01:07:16.371Z,28.27
2023-02-11T01:07:58.627Z,24.45
2023-02-11T01:08:40.553Z,22.38
2023-02-11T01:09:22.356Z,25.45
2023-02-11T01:10:04.476Z,24.23
2023-02-11T01:10:53.247Z,24.27
2023-02-11T01:11:35.167Z,23.75
2023-02-11T01:12:17.296Z,20.55
2023-02-11T01:12:59.144Z,19.33
2023-02-11T01:13:41.289Z,21.45
2023-02-11T01:14:23.002Z,23.38
2023-02-11T01:15:05.979Z,22.80
2023-02-11T01:15:47.869Z,22.23
2023-02-11T01:16:29.744Z,21.95
2023-02-11T01:17:11.529Z,24.80
2023-02-11T01:17:53.258Z,24.20
2023-02-11T01:18:35.753Z,28.98
2023-02-11T01:19:17.496Z,26.25
2023-02-11T01:19:59.215Z,25.38
2023-02-11T01:20:40.958Z,26.77
2023-02-11T01:21:22.708Z,27.25
2023-02-11T01:22:04.863Z,25.50
2023-02-11T01:22:46.569Z,27.15
2023-02-11T01:23:28.331Z,27.52
2023-02-11T01:24:10.068Z,22.25
2023-02-11T01:24:51.810Z,26.23
2023-02-11T01:25:33.503Z,25.20
2023-02-11T01:26:15.213Z,23.50
2023-02-11T01:26:56.989Z,25.02
2023-02-11T01:27:38.914Z,25.13
2023-02-11T01:28:23.586Z,22.17
2023-02-11T01:29:05.556Z,23.73
2023-02-11T01:29:47.274Z,24.13
2023-02-11T01:30:29.016Z,24.42
2023-02-11T01:31:10.968Z,27.75
2023-02-11T01:31:52.797Z,27.05
2023-02-11T01:32:35.381Z,25.55
2023-02-11T01:33:17.552Z,26.23
2023-02-11T01:33:59.250Z,26.80
2023-02-11T01:34:40.954Z,26.73
2023-02-11T01:35:22.718Z,24.27
2023-02-11T01:36:05.548Z,23.95
2023-02-11T01:36:47.257Z,27.42
2023-02-11T01:37:29.004Z,25.85
2023-02-11T01:38:22.858Z,26.92
2023-02-11T01:39:04.620Z,25.17
2023-02-11T01:39:46.412Z,24.55
2023-02-11T01:40:28.105Z,25.60
2023-02-11T01:41:11.891Z,29.77
2023-02-11T01:41:54.428Z,29.33
2023-02-11T01:42:36.183Z,28.15
2023-02-11T01:43:18.637Z,26.02
2023-02-11T01:44:29.331Z,29.25
2023-02-11T01:45:46.206Z,23.40
2023-02-11T01:46:36.730Z,25.10
2023-02-11T01:47:19.367Z,27.48
2023-02-11T01:48:02.482Z,29.30
2023-02-11T01:48:47.701Z,25.92
2023-02-11T01:49:39.629Z,25.95
2023-02-11T01:50:21.385Z,26.60
2023-02-11T01:51:10.957Z,24.48
2023-02-11T01:52:04.544Z,24.60
2023-02-11T01:52:47.880Z,28.30
2023-02-11T01:53:49.918Z,29.75
2023-02-11T01:54:57.912Z,29.20
2023-02-11T01:55:58.486Z,29.00
2023-02-11T01:57:08.469Z,28.25
2023-02-11T01:57:56.343Z,26.63
2023-02-11T01:58:41.078Z,30.63
2023-02-11T01:59:34.957Z,27.75
2023-02-11T02:00:29.104Z,24.77
2023-02-11T02:01:15.909Z,25.05
2023-02-11T02:02:03.494Z,27.05
2023-02-11T02:03:00.314Z,25.83
2023-02-11T02:03:45.878Z,25.50
2023-02-11T02:04:33.160Z,25.63
2023-02-11T02:05:53.537Z,25.17
2023-02-11T02:06:46.178Z,26.92
2023-02-11T02:07:42.750Z,27.95
2023-02-11T02:08:40.329Z,27.42
2023-02-11T02:09:29.013Z,27.70
2023-02-11T02:10:17.118Z,28.45
2023-02-11T02:11:00.916Z,24.00
2023-02-11T02:11:42.783Z,25.63
2023-02-11T02:12:24.537Z,28.27
2023-02-11T02:13:06.616Z,28.50
2023-02-11T02:13:51.065Z,28.13
2023-02-11T02:14:32.811Z,27.00
2023-02-11T02:15:25.459Z,24.95
2023-02-11T02:16:16.090Z,26.38
2023-02-11T02:16:58.172Z,25.73
2023-02-11T02:18:12.121Z,25.48
2023-02-11T02:19:17.828Z,29.92
2023-02-11T02:20:26.696Z,27.05
2023-02-11T02:21:21.013Z,25.20
2023-02-11T02:22:32.779Z,26.30
2023-02-11T02:23:40.797Z,28.85
2023-02-11T02:24:41.182Z,28.17
2023-02-11T02:25:50.111Z,26.77
2023-02-11T02:26:50.856Z,26.70
2023-02-11T02:28:08.475Z,27.65
2023-02-11T02:29:15.076Z,26.75
2023-02-11T02:30:15.409Z,27.80
2023-02-11T02:31:26.116Z,28.48
2023-02-11T02:32:26.638Z,30.67
2023-02-11T02:33:22.517Z,28.98
2023-02-11T02:34:14.886Z,31.17
2023-02-11T02:35:51.332Z,34.38
2023-02-11T02:36:51.887Z,31.55
2023-02-11T02:38:03.058Z,28.33
2023-02-11T02:38:54.180Z,36.45
2023-02-11T02:39:37.351Z,30.20
2023-02-11T02:40:29.419Z,28.70
2023-02-11T02:41:15.762Z,28.00
2023-02-11T02:41:58.154Z,30.63
2023-02-11T02:42:41.085Z,33.45
2023-02-11T02:43:26.095Z,32.10
2023-02-11T02:44:10.557Z,30.10
2023-02-11T02:44:53.692Z,31.65
2023-02-11T02:45:35.382Z,27.98
2023-02-11T02:46:24.497Z,27.05
2023-02-11T02:47:06.327Z,32.65
2023-02-11T02:47:48.048Z,32.15
2023-02-11T02:48:35.751Z,32.83
2023-02-11T02:49:17.697Z,30.90
2023-02-11T02:49:59.583Z,31.33
2023-02-11T02:50:44.096Z,31.13
2023-02-11T02:51:25.762Z,30.90
2023-02-11T02:52:28.353Z,32.50
2023-02-11T02:53:25.832Z,28.52
2023-02-11T02:54:35.844Z,30.85
2023-02-11T02:55:46.906Z,31.23
2023-02-11T02:56:50.206Z,31.48
2023-02-11T02:57:50.818Z,33.20
2023-02-11T02:59:02.460Z,33.40
2023-02-11T03:00:09.135Z,30.40
2023-02-11T03:01:42.359Z,37.70
2023-02-11T03:02:48.631Z,31.45
2023-02-11T03:04:05.202Z,32.65
2023-02-11T03:05:09.610Z,31.88
2023-02-11T03:06:05.292Z,32.40
2023-02-11T03:06:59.764Z,31.55
2023-02-11T03:08:01.697Z,30.50
2023-02-11T03:08:53.381Z,31.15
2023-02-11T03:09:45.048Z,31.30
2023-02-11T03:10:31.240Z,31.30
2023-02-11T03:11:17.116Z,31.52
2023-02-11T03:12:01.973Z,31.52
2023-02-11T03:12:47.106Z,32.83
2023-02-11T03:13:34.059Z,33.25
2023-02-11T03:14:18.205Z,33.55
2023-02-11T03:15:02.796Z,32.25
2023-02-11T03:15:50.348Z,31.70
2023-02-11T03:16:39.064Z,34.17
2023-02-11T03:17:23.497Z,33.38
2023-02-11T03:18:08.279Z,32.70
2023-02-11T03:18:59.227Z,33.33
2023-02-11T03:19:46.055Z,33.40
2023-02-11T03:20:30.412Z,31.85
2023-02-11T03:21:14.087Z,32.47
2023-02-11T03:21:57.377Z,30.77
2023-02-11T03:22:45.652Z,32.75
2023-02-11T03:23:53.128Z,34.63
2023-02-11T03:24:38.363Z,32.70
2023-02-11T03:25:22.405Z,29.52
2023-02-11T03:26:26.016Z,34.30
2023-02-11T03:27:30.274Z,32.92
2023-02-11T03:28:23.563Z,28.15
2023-02-11T03:29:32.249Z,28.58
2023-02-11T03:30:34.865Z,30.60
2023-02-11T03:31:29.501Z,30.10
2023-02-11T03:32:23.098Z,32.85
2023-02-11T03:33:18.235Z,34.70
2023-02-11T03:34:10.968Z,34.50
2023-02-11T03:35:25.814Z,33.92
2023-02-11T03:36:15.153Z,33.42
2023-02-11T03:37:17.907Z,28.85
2023-02-11T03:38:12.898Z,29.33
2023-02-11T03:38:57.936Z,32.25
2023-02-11T03:39:44.402Z,32.30
2023-02-11T03:40:29.664Z,32.10
2023-02-11T03:41:13.704Z,31.17
2023-02-11T03:41:58.584Z,28.77
2023-02-11T03:42:53.399Z,30.10
2023-02-11T03:43:42.149Z,30.88
2023-02-11T03:44:29.997Z,30.45
2023-02-11T03:45:16.641Z,32.40
2023-02-11T03:46:00.243Z,28.42
2023-02-11T03:46:46.131Z,33.53
2023-02-11T03:47:30.162Z,34.20
2023-02-11T03:48:18.964Z,34.25
2023-02-11T03:49:09.452Z,31.08
2023-02-11T03:49:53.201Z,28.77
2023-02-11T03:50:37.162Z,30.63
2023-02-11T03:51:21.440Z,33.25
2023-02-11T03:52:05.873Z,30.98
2023-02-11T03:52:49.246Z,29.67
2023-02-11T03:53:31.147Z,31.13
2023-02-11T03:54:18.073Z,31.60
2023-02-11T03:55:02.316Z,29.60
2023-02-11T03:55:46.530Z,32.63
2023-02-11T03:56:33.144Z,28.45
2023-02-11T03:57:14.971Z,29.63
2023-02-11T03:57:57.180Z,29.85
2023-02-11T03:58:39.105Z,32.67
2023-02-11T03:59:21.338Z,31.33
2023-02-11T04:00:04.001Z,32.28
2023-02-11T04:00:46.048Z,34.13
2023-02-11T04:01:27.985Z,32.20
2023-02-11T04:02:09.775Z,29.42
2023-02-11T04:02:51.484Z,30.83
2023-02-11T04:03:33.693Z,30.40
2023-02-11T04:04:15.871Z,30.15
2023-02-11T04:04:58.368Z,29.67
2023-02-11T04:05:40.937Z,29.70
2023-02-11T04:06:22.804Z,31.63
2023-02-11T04:07:04.496Z,26.90
2023-02-11T04:07:46.233Z,26.92
2023-02-11T04:08:28.143Z,29.88
2023-02-11T04:09:10.717Z,29.77
2023-02-11T04:09:53.003Z,32.33
2023-02-11T04:10:34.752Z,31.00
2023-02-11T04:11:16.506Z,28.17
2023-02-11T04:11:58.239Z,33.28
2023-02-11T04:12:39.984Z,32.47
2023-02-11T04:13:23.093Z,32.35
2023-02-11T04:14:04.961Z,31.55
2023-02-11T04:14:46.693Z,30.40
2023-02-11T04:15:28.633Z,32.92
2023-02-11T04:16:10.462Z,29.77
2023-02-11T04:16:52.221Z,30.50
2023-02-11T04:17:34.014Z,29.90
2023-02-11T04:18:15.856Z,30.08
2023-02-11T04:18:57.910Z,33.00
2023-02-11T04:19:39.800Z,28.95
2023-02-11T04:20:21.726Z,29.77
2023-02-11T04:21:03.658Z,30.08
2023-02-11T04:21:45.434Z,30.38
2023-02-11T04:22:27.249Z,33.28
2023-02-11T04:23:10.160Z,27.85
2023-02-11T04:23:51.882Z,30.08
2023-02-11T04:24:33.866Z,29.55
2023-02-11T04:25:15.726Z,27.80
2023-02-11T04:25:57.511Z,30.63
2023-02-11T04:26:39.287Z,28.88
2023-02-11T04:27:21.070Z,27.98
2023-02-11T04:28:02.856Z,27.73
2023-02-11T04:28:44.654Z,29.15
2023-02-11T04:29:26.653Z,31.27
2023-02-11T04:30:12.255Z,28.98
2023-02-11T04:30:54.073Z,28.05
2023-02-11T04:31:35.982Z,27.90
2023-02-11T04:32:17.815Z,26.92
2023-02-11T04:32:59.580Z,32.42
2023-02-11T04:33:41.403Z,33.10
2023-02-11T04:34:24.552Z,30.27
2023-02-11T04:35:06.954Z,26.05
2023-02-11T04:35:49.536Z,29.05
2023-02-11T04:36:31.444Z,30.42
2023-02-11T04:37:13.331Z,26.85
2023-02-11T04:37:55.060Z,26.30
2023-02-11T04:38:36.797Z,32.15
2023-02-11T04:39:18.939Z,29.15
2023-02-11T04:40:00.713Z,27.90
2023-02-11T04:40:42.521Z,26.95
2023-02-11T04:41:24.268Z,31.20
2023-02-11T04:42:06.111Z,26.10
2023-02-11T04:42:47.827Z,25.65
2023-02-11T04:43:29.646Z,27.08
2023-02-11T04:44:11.426Z,25.00
2023-02-11T04:44:53.211Z,27.70
2023-02-11T04:45:35.208Z,25.58
2023-02-11T04:46:16.977Z,25.95
2023-02-11T04:46:58.817Z,27.15
2023-02-11T04:47:40.590Z,30.00
2023-02-11T04:48:22.324Z,30.40
2023-02-11T04:49:04.177Z,29.85
2023-02-11T04:49:46.031Z,27.98
2023-02-11T04:50:27.755Z,27.60
2023-02-11T04:51:09.610Z,28.92
2023-02-11T04:51:51.345Z,30.23
2023-02-11T04:52:33.106Z,26.25
2023-02-11T04:53:14.846Z,29.05
2023-02-11T04:53:56.669Z,27.13
2023-02-11T04:54:38.592Z,26.88
2023-02-11T04:55:20.523Z,26.27
2023-02-11T04:56:05.976Z,27.17
2023-02-11T04:56:48.130Z,26.27
2023-02-11T04:57:29.868Z,23.92
2023-02-11T04:58:11.688Z,29.73
2023-02-11T04:58:53.390Z,29.63
2023-02-11T04:59:35.129Z,25.67
2023-02-11T05:00:17.392Z,26.50
2023-02-11T05:01:07.969Z,29.08
2023-02-11T05:01:49.975Z,28.85
2023-02-11T05:02:34.817Z,28.92
2023-02-11T05:03:16.903Z,28.27
2023-02-11T05:03:58.831Z,26.00
2023-02-11T05:04:40.715Z,26.23
2023-02-11T05:05:22.540Z,28.13
2023-02-11T05:06:05.016Z,29.65
2023-02-11T05:06:46.785Z,29.52
2023-02-11T05:07:28.570Z,32.53
2023-02-11T05:08:11.350Z,31.42
2023-02-11T05:08:53.178Z,28.85
2023-02-11T05:09:35.113Z,28.10
2023-02-11T05:10:17.083Z,25.20
2023-02-11T05:10:59.493Z,25.88
2023-02-11T05:11:41.302Z,29.05
2023-02-11T05:12:23.072Z,28.35
2023-02-11T05:13:04.863Z,27.77
2023-02-11T05:13:47.378Z,28.48
2023-02-11T05:14:29.260Z,33.15
2023-02-11T05:15:11.086Z,30.77
2023-02-11T05:15:53.689Z,33.55
2023-02-11T05:16:35.656Z,30.02
2023-02-11T05:17:17.675Z,26.80
2023-02-11T05:17:59.429Z,28.40
2023-02-11T05:18:42.963Z,25.58
2023-02-11T05:19:24.872Z,27.63
2023-02-11T05:20:07.116Z,32.47
2023-02-11T05:20:49.185Z,32.88
2023-02-11T05:21:31.030Z,27.70
2023-02-11T05:22:12.832Z,29.38
2023-02-11T05:22:54.603Z,29.35
2023-02-11T05:23:37.095Z,28.88
2023-02-11T05:24:20.581Z,31.67
2023-02-11T05:25:02.562Z,27.88
2023-02-11T05:25:44.391Z,28.02
2023-02-11T05:26:26.798Z,24.55
2023-02-11T05:27:08.599Z,26.15
2023-02-11T05:27:50.308Z,27.40
2023-02-11T05:28:32.468Z,25.00
2023-02-11T05:29:14.366Z,24.08
2023-02-11T05:29:56.202Z,25.95
2023-02-11T05:30:38.050Z,28.75
2023-02-11T05:31:20.177Z,28.65
2023-02-11T05:32:01.937Z,30.00
2023-02-11T05:32:43.685Z,28.05
2023-02-11T05:33:25.505Z,25.35
2023-02-11T05:34:07.355Z,26.58
2023-02-11T05:34:49.211Z,31.27
2023-02-11T05:35:31.016Z,32.20
2023-02-11T05:36:14.030Z,30.05
2023-02-11T05:36:55.862Z,27.35
2023-02-11T05:37:37.799Z,31.63
2023-02-11T05:38:19.586Z,31.80
2023-02-11T05:39:01.310Z,27.88
2023-02-11T05:39:43.168Z,26.00
2023-02-11T05:40:25.029Z,25.98
2023-02-11T05:41:07.345Z,25.77
2023-02-11T05:41:49.153Z,30.00
2023-02-11T05:42:31.016Z,30.40
2023-02-11T05:43:12.714Z,26.63
2023-02-11T05:43:54.528Z,26.58
2023-02-11T05:44:36.408Z,30.80
2023-02-11T05:45:18.471Z,28.45
2023-02-11T05:46:00.319Z,30.25
2023-02-11T05:46:42.190Z,34.78
2023-02-11T05:47:24.011Z,28.33
2023-02-11T05:48:05.859Z,29.17
2023-02-11T05:48:47.594Z,30.48
2023-02-11T05:49:29.362Z,29.73
2023-02-11T05:50:11.354Z,29.83
2023-02-11T05:50:53.082Z,35.00
2023-02-11T05:51:34.849Z,29.75
2023-02-11T05:52:16.665Z,27.65
2023-02-11T05:52:58.445Z,31.08
2023-02-11T05:53:40.470Z,29.30
2023-02-11T05:54:22.427Z,27.95
2023-02-11T05:55:04.589Z,32.85
2023-02-11T05:55:46.451Z,32.22
2023-02-11T05:56:28.235Z,31.85
2023-02-11T05:57:09.996Z,30.95
2023-02-11T05:57:51.776Z,33.22
2023-02-11T05:58:33.571Z,36.78
2023-02-11T05:59:15.331Z,32.75
2023-02-11T05:59:57.081Z,34.08
2023-02-11T06:00:39.108Z,33.10
2023-02-11T06:01:20.915Z,30.73
2023-02-11T06:02:02.894Z,31.80
2023-02-11T06:02:44.702Z,35.05
2023-02-11T06:03:26.654Z,30.85
2023-02-11T06:04:08.460Z,31.23
2023-02-11T06:04:50.302Z,35.47
2023-02-11T06:05:32.325Z,35.47
2023-02-11T06:06:14.103Z,32.22
2023-02-11T06:06:56.386Z,30.90
2023-02-11T06:07:38.104Z,31.67
2023-02-11T06:08:20.035Z,34.35
2023-02-11T06:09:01.894Z,35.75
2023-02-11T06:09:43.794Z,32.97
2023-02-11T06:10:26.771Z,33.00
2023-02-11T06:11:08.660Z,32.75
2023-02-11T06:11:50.497Z,29.70
2023-02-11T06:12:32.353Z,32.97
2023-02-11T06:13:14.221Z,29.52
2023-02-11T06:13:56.018Z,32.58
2023-02-11T06:14:37.853Z,33.90
2023-02-11T06:15:19.736Z,33.47
2023-02-11T06:16:02.725Z,33.78
2023-02-11T06:16:44.665Z,30.77
2023-02-11T06:17:26.531Z,36.08
2023-02-11T06:18:08.643Z,32.75
2023-02-11T06:18:50.375Z,34.63
2023-02-11T06:19:32.172Z,38.40
2023-02-11T06:20:14.110Z,32.75
2023-02-11T06:20:56.630Z,30.50
2023-02-11T06:21:44.118Z,32.75
2023-02-11T06:22:26.816Z,32.80
2023-02-11T06:23:08.612Z,31.63
2023-02-11T06:23:50.430Z,30.40
2023-02-11T06:24:58.487Z,36.40
2023-02-11T06:25:34.035Z,31.33
2023-02-11T06:26:21.122Z,33.72
2023-02-11T06:27:04.836Z,29.70
2023-02-11T06:27:46.728Z,30.65
2023-02-11T06:28:28.783Z,30.13
2023-02-11T06:29:11.014Z,33.13
2023-02-11T06:29:52.890Z,33.20
2023-02-11T06:30:36.067Z,33.45
2023-02-11T06:31:18.040Z,32.45
2023-02-11T06:32:00.263Z,30.48
2023-02-11T06:32:44.876Z,30.92
2023-02-11T06:33:27.219Z,31.88
2023-02-11T06:34:12.909Z,36.08
2023-02-11T06:34:57.068Z,40.85
2023-02-11T06:35:42.223Z,37.60
2023-02-11T06:36:24.206Z,32.15
2023-02-11T06:37:06.728Z,29.75
2023-02-11T06:37:49.701Z,29.98
2023-02-11T06:38:31.750Z,38.40
2023-02-11T06:39:14.197Z,32.33
2023-02-11T06:39:56.397Z,29.45
2023-02-11T06:40:38.268Z,29.50
2023-02-11T06:41:21.106Z,33.85
2023-02-11T06:42:03.010Z,31.33
2023-02-11T06:42:46.927Z,32.70
2023-02-11T06:43:28.844Z,33.05
2023-02-11T06:44:12.749Z,31.58
2023-02-11T06:44:54.518Z,35.05
2023-02-11T06:45:36.499Z,34.22
2023-02-11T06:46:18.414Z,33.03
2023-02-11T06:47:00.382Z,31.45
2023-02-11T06:47:42.462Z,29.92
2023-02-11T06:48:24.443Z,34.30
2023-02-11T06:49:09.044Z,34.00
2023-02-11T06:49:50.978Z,34.17
2023-02-11T06:50:32.818Z,31.47
2023-02-11T06:51:17.174Z,32.78
2023-02-11T06:51:59.010Z,35.28
2023-02-11T06:52:41.007Z,33.65
2023-02-11T06:53:22.866Z,34.08
2023-02-11T06:54:06.478Z,33.00
2023-02-11T06:54:48.293Z,31.67
2023-02-11T06:55:30.117Z,32.42
2023-02-11T06:56:15.272Z,32.72
2023-02-11T06:56:57.078Z,37.28
2023-02-11T06:57:38.996Z,35.80
2023-02-11T06:58:20.896Z,40.00
2023-02-11T06:59:03.520Z,39.47
2023-02-11T06:59:45.298Z,33.88
2023-02-11T07:00:29.093Z,33.28
2023-02-11T07:01:16.106Z,33.60
2023-02-11T07:01:57.934Z,31.17
2023-02-11T07:02:41.830Z,34.45
2023-02-11T07:03:26.970Z,33.53
2023-02-11T07:04:08.966Z,33.20
2023-02-11T07:04:51.064Z,31.52
2023-02-11T07:05:34.218Z,33.85
2023-02-11T07:06:18.721Z,33.47
2023-02-11T07:07:00.595Z,38.83
2023-02-11T07:07:42.416Z,42.55
2023-02-11T07:08:24.221Z,35.45
2023-02-11T07:09:06.193Z,33.83
2023-02-11T07:09:48.286Z,37.03
2023-02-11T07:10:30.338Z,35.95
2023-02-11T07:11:15.059Z,36.17
2023-02-11T07:11:56.812Z,35.67
2023-02-11T07:12:38.698Z,40.08
2023-02-11T07:13:20.520Z,37.33
2023-02-11T07:14:08.519Z,30.23
2023-02-11T07:14:50.328Z,31.88
2023-02-11T07:15:32.264Z,31.23
2023-02-11T07:16:16.944Z,32.72
2023-02-11T07:16:58.844Z,32.63
2023-02-11T07:17:41.067Z,32.92
2023-02-11T07:18:22.884Z,29.52
2023-02-11T07:19:06.744Z,31.13
2023-02-11T07:19:48.669Z,31.95
2023-02-11T07:20:30.442Z,35.53
2023-02-11T07:21:19.084Z,31.63
2023-02-11T07:22:01.153Z,36.97
2023-02-11T07:22:42.979Z,32.50
2023-02-11T07:23:26.877Z,32.10
2023-02-11T07:24:11.964Z,34.25
2023-02-11T07:24:53.783Z,39.40
2023-02-11T07:25:36.436Z,34.65
2023-02-11T07:26:23.007Z,32.45
2023-02-11T07:27:07.142Z,28.88
2023-02-11T07:27:50.159Z,31.83
2023-02-11T07:28:32.493Z,33.80
2023-02-11T07:29:14.380Z,35.08
2023-02-11T07:29:56.286Z,35.83
2023-02-11T07:30:38.100Z,36.05
2023-02-11T07:31:23.481Z,35.63
2023-02-11T07:32:06.854Z,42.45
2023-02-11T07:32:48.994Z,35.35
2023-02-11T07:33:31.139Z,36.78
2023-02-11T07:34:12.937Z,32.92
2023-02-11T07:34:57.383Z,32.17
2023-02-11T07:35:41.648Z,37.80
2023-02-11T07:36:27.261Z,38.80
2023-02-11T07:37:09.098Z,36.30
2023-02-11T07:37:51.171Z,32.88
2023-02-11T07:38:34.104Z,36.45
2023-02-11T07:39:16.297Z,39.78
2023-02-11T07:39:58.070Z,36.50
2023-02-11T07:40:42.079Z,40.03
2023-02-11T07:41:25.189Z,41.63
2023-02-11T07:42:07.164Z,37.35
2023-02-11T07:42:48.967Z,37.30
2023-02-11T07:43:32.220Z,39.22
2023-02-11T07:44:14.225Z,38.17
2023-02-11T07:44:56.146Z,40.97
2023-02-11T07:45:39.449Z,38.85
2023-02-11T07:46:24.161Z,40.10
2023-02-11T07:47:06.259Z,37.17
2023-02-11T07:47:48.095Z,38.92
2023-02-11T07:48:29.968Z,37.28
2023-02-11T07:49:12.876Z,36.55
2023-02-11T07:49:57.345Z,33.30
2023-02-11T07:50:39.115Z,37.78
2023-02-11T07:51:24.122Z,39.58
2023-02-11T07:52:05.943Z,36.83
2023-02-11T07:52:47.758Z,35.67
2023-02-11T07:53:29.577Z,36.67
2023-02-11T07:54:12.311Z,35.33
2023-02-11T07:54:54.190Z,34.97
2023-02-11T07:55:36.286Z,38.15
2023-02-11T07:56:22.345Z,41.05
2023-02-11T07:57:04.212Z,38.78
2023-02-11T07:57:46.143Z,36.05
2023-02-11T07:58:27.975Z,37.15
2023-02-11T07:59:11.705Z,39.78
2023-02-11T07:59:53.963Z,38.17
2023-02-11T08:00:37.864Z,39.95
2023-02-11T08:01:27.004Z,37.60
2023-02-11T08:02:09.559Z,37.70
2023-02-11T08:02:51.610Z,40.38
2023-02-11T08:03:34.820Z,39.63
2023-02-11T08:04:17.067Z,37.80
2023-02-11T08:04:58.868Z,37.92
2023-02-11T08:05:40.769Z,35.28
2023-02-11T08:06:25.078Z,35.15
2023-02-11T08:07:07.150Z,41.35
2023-02-11T08:07:52.384Z,36.10
2023-02-11T08:08:34.510Z,38.40
2023-02-11T08:09:16.928Z,38.15
2023-02-11T08:09:58.744Z,41.10
2023-02-11T08:10:40.594Z,37.15
2023-02-11T08:11:26.342Z,36.92
2023-02-11T08:12:08.258Z,38.92
2023-02-11T08:12:52.382Z,39.10
2023-02-11T08:13:34.596Z,42.72
2023-02-11T08:14:16.401Z,41.55
2023-02-11T08:14:58.252Z,41.65
2023-02-11T08:15:42.125Z,39.03
2023-02-11T08:16:32.001Z,37.55
2023-02-11T08:17:13.987Z,41.42
2023-02-11T08:17:55.793Z,41.28
2023-02-11T08:18:37.581Z,40.15
2023-02-11T08:19:19.538Z,38.63
2023-02-11T08:20:01.678Z,37.72
2023-02-11T08:20:43.570Z,40.42
2023-02-11T08:21:26.353Z,42.30
2023-02-11T08:22:11.321Z,43.65
2023-02-11T08:22:53.157Z,39.08
2023-02-11T08:23:42.059Z,40.03
2023-02-11T08:24:24.105Z,39.00
2023-02-11T08:25:06.403Z,41.75
2023-02-11T08:25:48.294Z,43.08
2023-02-11T08:26:37.564Z,41.05
2023-02-11T08:27:19.450Z,36.85
2023-02-11T08:28:01.321Z,34.53
2023-02-11T08:28:44.769Z,36.20
2023-02-11T08:29:27.030Z,39.58
2023-02-11T08:30:09.656Z,43.20
2023-02-11T08:30:51.703Z,40.92
2023-02-11T08:31:36.021Z,37.37
2023-02-11T08:32:18.038Z,39.80
2023-02-11T08:33:01.994Z,42.65
2023-02-11T08:33:44.225Z,38.45
2023-02-11T08:34:26.303Z,36.03
2023-02-11T08:35:08.678Z,41.17
2023-02-11T08:35:50.462Z,42.10
2023-02-11T08:36:34.593Z,39.90
2023-02-11T08:37:17.744Z,37.15
2023-02-11T08:37:59.628Z,41.50
2023-02-11T08:38:42.193Z,38.95
2023-02-11T08:39:24.120Z,38.03
2023-02-11T08:40:06.350Z,39.10
2023-02-11T08:40:49.483Z,36.95
2023-02-11T08:41:35.398Z,44.03
2023-02-11T08:42:17.260Z,44.63
2023-02-11T08:42:59.140Z,36.95
2023-02-11T08:43:42.196Z,40.10
2023-02-11T08:44:27.170Z,34.67
2023-02-11T08:45:10.474Z,37.42
2023-02-11T08:45:52.921Z,37.70
2023-02-11T08:46:37.093Z,33.58
2023-02-11T08:47:18.914Z,34.95
2023-02-11T08:48:01.029Z,35.17
2023-02-11T08:48:43.440Z,32.45
2023-02-11T08:49:25.344Z,31.25
2023-02-11T08:50:07.524Z,34.08
2023-02-11T08:50:49.318Z,33.40
2023-02-11T08:51:31.600Z,36.22
2023-02-11T08:52:13.550Z,35.58
2023-02-11T08:52:55.412Z,35.42
2023-02-11T08:53:37.400Z,32.58
2023-02-11T08:54:19.487Z,33.97
2023-02-11T08:55:01.525Z,36.63
2023-02-11T08:55:54.666Z,34.65
2023-02-11T08:56:38.071Z,33.53
2023-02-11T08:57:19.899Z,36.00
2023-02-11T08:58:01.906Z,36.63
2023-02-11T08:58:44.248Z,34.83
2023-02-11T08:59:26.320Z,35.90
2023-02-11T09:00:11.220Z,36.60
2023-02-11T09:00:53.491Z,34.05
2023-02-11T09:01:35.771Z,32.58
2023-02-11T09:02:17.801Z,36.55
2023-02-11T09:03:01.354Z,35.45
2023-02-11T09:03:43.202Z,34.40
2023-02-11T09:04:27.737Z,32.93
2023-02-11T09:05:09.650Z,32.15
2023-02-11T09:05:53.342Z,34.90
2023-02-11T09:06:37.242Z,38.83
2023-02-11T09:07:19.246Z,35.55
2023-02-11T09:08:03.636Z,35.63
2023-02-11T09:08:51.440Z,34.22
2023-02-11T09:09:33.489Z,38.30
2023-02-11T09:10:15.404Z,34.60
2023-02-11T09:10:57.760Z,31.67
2023-02-11T09:11:40.737Z,31.25
2023-02-11T09:12:22.631Z,34.53
2023-02-11T09:13:04.464Z,38.10
2023-02-11T09:13:46.904Z,35.72
2023-02-11T09:14:28.820Z,33.50
2023-02-11T09:15:10.627Z,34.55
2023-02-11T09:15:52.436Z,32.65
2023-02-11T09:16:38.394Z,33.83
2023-02-11T09:17:20.315Z,35.60
2023-02-11T09:18:02.369Z,34.35
2023-02-11T09:18:45.685Z,37.58
2023-02-11T09:19:27.842Z,37.90
2023-02-11T09:20:12.634Z,37.95
2023-02-11T09:21:01.996Z,37.10
2023-02-11T09:21:44.427Z,32.30
2023-02-11T09:22:26.442Z,32.30
2023-02-11T09:23:08.776Z,33.20
2023-02-11T09:23:51.372Z,36.92
2023-02-11T09:24:33.212Z,33.22
2023-02-11T09:25:17.510Z,33.15
2023-02-11T09:25:59.351Z,32.85
2023-02-11T09:26:43.174Z,37.00
2023-02-11T09:27:24.950Z,36.47
2023-02-11T09:28:08.074Z,35.00
2023-02-11T09:28:51.423Z,33.53
2023-02-11T09:29:33.296Z,35.13
2023-02-11T09:30:15.322Z,33.00
2023-02-11T09:30:57.161Z,36.20
2023-02-11T09:31:39.151Z,35.42
2023-02-11T09:32:21.012Z,34.38
2023-02-11T09:33:03.062Z,35.72
2023-02-11T09:33:49.452Z,36.47
2023-02-11T09:34:31.471Z,35.85
2023-02-11T09:35:13.398Z,32.88